sensor_id;sensor_type;location;lat;lon;timestamp;P1;durP1;ratioP1;P2;durP2;ratioP2
2338;SDS011;1180;51.438;6.978;2022-12-20T00:01:09;3.27;;;2.40;;
2338;SDS011;1180;51.438;6.978;2022-12-20T00:03:39;2.90;;;2.23;;
2338;SDS011;1180;51.438;6.978;2022-12-20T00:06:06;2.17;;;1.97;;
2338;SDS011;1180;51.438;6.978;2022-12-20T00:08:31;3.70;;;1.90;;
2338;SDS011;1180;51.438;6.978;2022-12-20T00:10:59;4.73;;;2.10;;
2338;SDS011;1180;51.438;6.978;2022-12-20T00:13:25;2.80;;;1.90;;
2338;SDS011;1180;51.438;6.978;2022-12-20T00:16:02;2.40;;;2.20;;
2338;SDS011;1180;51.438;6.978;2022-12-20T00:18:28;2.13;;;1.53;;
2338;SDS011;1180;51.438;6.978;2022-12-20T00:20:57;3.10;;;2.03;;
2338;SDS011;1180;51.438;6.978;2022-12-20T00:23:23;3.00;;;2.00;;
2338;SDS011;1180;51.438;6.978;2022-12-20T00:25:49;5.40;;;2.73;;
2338;SDS011;1180;51.438;6.978;2022-12-20T00:28:14;2.37;;;2.17;;
2338;SDS011;1180;51.438;6.978;2022-12-20T00:30:39;1.80;;;1.70;;
2338;SDS011;1180;51.438;6.978;2022-12-20T00:33:05;2.37;;;2.17;;
2338;SDS011;1180;51.438;6.978;2022-12-20T00:35:30;2.90;;;1.93;;
2338;SDS011;1180;51.438;6.978;2022-12-20T00:37:55;2.67;;;2.20;;
2338;SDS011;1180;51.438;6.978;2022-12-20T00:40:20;2.37;;;2.17;;
2338;SDS011;1180;51.438;6.978;2022-12-20T00:42:46;2.30;;;2.00;;
2338;SDS011;1180;51.438;6.978;2022-12-20T00:45:11;3.10;;;1.80;;
2338;SDS011;1180;51.438;6.978;2022-12-20T00:47:36;2.00;;;1.90;;
2338;SDS011;1180;51.438;6.978;2022-12-20T00:50:03;2.90;;;2.23;;
2338;SDS011;1180;51.438;6.978;2022-12-20T00:52:28;2.20;;;2.00;;
2338;SDS011;1180;51.438;6.978;2022-12-20T00:54:54;2.53;;;2.23;;
2338;SDS011;1180;51.438;6.978;2022-12-20T00:57:19;2.13;;;1.90;;
2338;SDS011;1180;51.438;6.978;2022-12-20T00:59:45;2.50;;;1.80;;
2338;SDS011;1180;51.438;6.978;2022-12-20T01:02:10;3.00;;;2.40;;
2338;SDS011;1180;51.438;6.978;2022-12-20T01:04:35;2.27;;;2.03;;
2338;SDS011;1180;51.438;6.978;2022-12-20T01:07:01;3.53;;;2.33;;
2338;SDS011;1180;51.438;6.978;2022-12-20T01:09:27;2.73;;;2.13;;
2338;SDS011;1180;51.438;6.978;2022-12-20T01:11:52;1.90;;;1.80;;
2338;SDS011;1180;51.438;6.978;2022-12-20T01:14:18;3.10;;;2.00;;
2338;SDS011;1180;51.438;6.978;2022-12-20T01:16:44;2.53;;;1.87;;
2338;SDS011;1180;51.438;6.978;2022-12-20T01:19:11;2.33;;;1.97;;
2338;SDS011;1180;51.438;6.978;2022-12-20T01:21:38;4.53;;;2.67;;
2338;SDS011;1180;51.438;6.978;2022-12-20T01:24:08;4.87;;;1.63;;
2338;SDS011;1180;51.438;6.978;2022-12-20T01:26:34;3.50;;;2.07;;
2338;SDS011;1180;51.438;6.978;2022-12-20T01:29:00;3.50;;;2.87;;
2338;SDS011;1180;51.438;6.978;2022-12-20T01:31:25;4.73;;;2.50;;
2338;SDS011;1180;51.438;6.978;2022-12-20T01:33:52;2.47;;;1.60;;
2338;SDS011;1180;51.438;6.978;2022-12-20T01:36:21;2.87;;;2.53;;
2338;SDS011;1180;51.438;6.978;2022-12-20T01:38:57;2.77;;;1.77;;
2338;SDS011;1180;51.438;6.978;2022-12-20T01:41:28;3.83;;;2.77;;
2338;SDS011;1180;51.438;6.978;2022-12-20T01:46:25;2.03;;;1.77;;
2338;SDS011;1180;51.438;6.978;2022-12-20T01:48:57;2.60;;;1.77;;
2338;SDS011;1180;51.438;6.978;2022-12-20T01:51:26;2.27;;;2.07;;
2338;SDS011;1180;51.438;6.978;2022-12-20T01:53:56;3.37;;;2.37;;
2338;SDS011;1180;51.438;6.978;2022-12-20T01:56:26;2.70;;;1.70;;
2338;SDS011;1180;51.438;6.978;2022-12-20T01:58:52;2.20;;;1.70;;
2338;SDS011;1180;51.438;6.978;2022-12-20T02:01:20;5.33;;;2.30;;
2338;SDS011;1180;51.438;6.978;2022-12-20T02:03:48;2.07;;;1.87;;
2338;SDS011;1180;51.438;6.978;2022-12-20T02:06:16;2.60;;;2.40;;
2338;SDS011;1180;51.438;6.978;2022-12-20T02:08:45;5.63;;;2.63;;
2338;SDS011;1180;51.438;6.978;2022-12-20T02:11:26;6.27;;;2.57;;
2338;SDS011;1180;51.438;6.978;2022-12-20T02:14:18;3.23;;;2.10;;
2338;SDS011;1180;51.438;6.978;2022-12-20T02:17:23;2.37;;;2.10;;
2338;SDS011;1180;51.438;6.978;2022-12-20T02:27:59;2.40;;;1.60;;
2338;SDS011;1180;51.438;6.978;2022-12-20T02:30:31;2.70;;;1.97;;
2338;SDS011;1180;51.438;6.978;2022-12-20T02:33:02;2.70;;;2.50;;
2338;SDS011;1180;51.438;6.978;2022-12-20T02:35:30;2.90;;;2.43;;
2338;SDS011;1180;51.438;6.978;2022-12-20T02:37:58;2.40;;;2.10;;
2338;SDS011;1180;51.438;6.978;2022-12-20T02:40:31;2.57;;;2.30;;
2338;SDS011;1180;51.438;6.978;2022-12-20T02:43:06;3.70;;;2.20;;
2338;SDS011;1180;51.438;6.978;2022-12-20T02:45:53;2.77;;;2.50;;
2338;SDS011;1180;51.438;6.978;2022-12-20T02:48:21;2.50;;;2.30;;
2338;SDS011;1180;51.438;6.978;2022-12-20T02:50:50;4.63;;;3.43;;
2338;SDS011;1180;51.438;6.978;2022-12-20T02:53:18;2.87;;;2.50;;
2338;SDS011;1180;51.438;6.978;2022-12-20T02:55:56;2.77;;;2.40;;
2338;SDS011;1180;51.438;6.978;2022-12-20T02:58:33;5.67;;;3.20;;
2338;SDS011;1180;51.438;6.978;2022-12-20T03:01:05;2.53;;;2.20;;
2338;SDS011;1180;51.438;6.978;2022-12-20T03:03:35;3.40;;;2.63;;
2338;SDS011;1180;51.438;6.978;2022-12-20T03:06:01;4.70;;;3.60;;
2338;SDS011;1180;51.438;6.978;2022-12-20T03:08:26;4.33;;;2.50;;
2338;SDS011;1180;51.438;6.978;2022-12-20T03:10:52;3.00;;;2.70;;
2338;SDS011;1180;51.438;6.978;2022-12-20T03:13:19;3.10;;;2.80;;
2338;SDS011;1180;51.438;6.978;2022-12-20T03:15:46;2.87;;;2.50;;
2338;SDS011;1180;51.438;6.978;2022-12-20T03:18:11;3.50;;;3.13;;
2338;SDS011;1180;51.438;6.978;2022-12-20T03:20:36;4.20;;;3.10;;
2338;SDS011;1180;51.438;6.978;2022-12-20T03:23:02;3.00;;;2.80;;
2338;SDS011;1180;51.438;6.978;2022-12-20T03:25:28;3.43;;;2.90;;
2338;SDS011;1180;51.438;6.978;2022-12-20T03:27:53;3.43;;;3.13;;
2338;SDS011;1180;51.438;6.978;2022-12-20T03:30:19;4.27;;;3.57;;
2338;SDS011;1180;51.438;6.978;2022-12-20T03:32:44;2.83;;;2.63;;
2338;SDS011;1180;51.438;6.978;2022-12-20T03:35:10;4.90;;;2.70;;
2338;SDS011;1180;51.438;6.978;2022-12-20T03:37:35;3.40;;;3.07;;
2338;SDS011;1180;51.438;6.978;2022-12-20T03:40:00;3.50;;;3.20;;
2338;SDS011;1180;51.438;6.978;2022-12-20T03:42:26;5.27;;;3.30;;
2338;SDS011;1180;51.438;6.978;2022-12-20T03:44:51;5.33;;;2.80;;
2338;SDS011;1180;51.438;6.978;2022-12-20T03:47:16;6.53;;;3.67;;
2338;SDS011;1180;51.438;6.978;2022-12-20T03:49:42;3.00;;;2.70;;
2338;SDS011;1180;51.438;6.978;2022-12-20T03:52:08;4.20;;;3.33;;
2338;SDS011;1180;51.438;6.978;2022-12-20T03:54:36;5.80;;;3.40;;
2338;SDS011;1180;51.438;6.978;2022-12-20T03:57:01;4.70;;;3.27;;
2338;SDS011;1180;51.438;6.978;2022-12-20T03:59:27;3.63;;;3.17;;
2338;SDS011;1180;51.438;6.978;2022-12-20T04:01:52;3.53;;;3.10;;
2338;SDS011;1180;51.438;6.978;2022-12-20T04:04:18;3.90;;;2.67;;
2338;SDS011;1180;51.438;6.978;2022-12-20T04:06:43;4.07;;;3.00;;
2338;SDS011;1180;51.438;6.978;2022-12-20T04:09:08;3.10;;;2.67;;
2338;SDS011;1180;51.438;6.978;2022-12-20T04:11:34;5.57;;;3.20;;
2338;SDS011;1180;51.438;6.978;2022-12-20T04:13:59;3.67;;;3.33;;
2338;SDS011;1180;51.438;6.978;2022-12-20T04:16:25;2.57;;;2.37;;
2338;SDS011;1180;51.438;6.978;2022-12-20T04:18:52;3.73;;;3.13;;
2338;SDS011;1180;51.438;6.978;2022-12-20T04:21:25;2.77;;;2.40;;
2338;SDS011;1180;51.438;6.978;2022-12-20T04:23:52;7.63;;;3.80;;
2338;SDS011;1180;51.438;6.978;2022-12-20T04:26:18;5.73;;;4.00;;
2338;SDS011;1180;51.438;6.978;2022-12-20T04:28:44;4.40;;;3.27;;
2338;SDS011;1180;51.438;6.978;2022-12-20T04:31:09;3.30;;;2.77;;
2338;SDS011;1180;51.438;6.978;2022-12-20T04:33:35;4.90;;;2.90;;
2338;SDS011;1180;51.438;6.978;2022-12-20T04:36:00;3.90;;;3.13;;
2338;SDS011;1180;51.438;6.978;2022-12-20T04:38:26;2.80;;;2.60;;
2338;SDS011;1180;51.438;6.978;2022-12-20T04:40:52;4.87;;;3.47;;
2338;SDS011;1180;51.438;6.978;2022-12-20T04:43:19;4.63;;;2.80;;
2338;SDS011;1180;51.438;6.978;2022-12-20T04:45:48;6.10;;;3.37;;
2338;SDS011;1180;51.438;6.978;2022-12-20T04:48:16;4.80;;;3.30;;
2338;SDS011;1180;51.438;6.978;2022-12-20T04:50:41;5.20;;;3.53;;
2338;SDS011;1180;51.438;6.978;2022-12-20T04:53:08;5.17;;;3.47;;
2338;SDS011;1180;51.438;6.978;2022-12-20T04:56:00;3.30;;;2.50;;
2338;SDS011;1180;51.438;6.978;2022-12-20T04:58:26;5.03;;;3.13;;
2338;SDS011;1180;51.438;6.978;2022-12-20T05:00:52;2.70;;;2.50;;
2338;SDS011;1180;51.438;6.978;2022-12-20T05:03:18;4.83;;;3.60;;
2338;SDS011;1180;51.438;6.978;2022-12-20T05:05:44;3.50;;;3.20;;
2338;SDS011;1180;51.438;6.978;2022-12-20T05:08:09;3.03;;;2.73;;
2338;SDS011;1180;51.438;6.978;2022-12-20T05:10:35;3.37;;;2.60;;
2338;SDS011;1180;51.438;6.978;2022-12-20T05:13:00;8.17;;;3.10;;
2338;SDS011;1180;51.438;6.978;2022-12-20T05:15:26;4.27;;;3.20;;
2338;SDS011;1180;51.438;6.978;2022-12-20T05:17:51;3.20;;;2.90;;
2338;SDS011;1180;51.438;6.978;2022-12-20T05:20:23;6.30;;;3.10;;
2338;SDS011;1180;51.438;6.978;2022-12-20T05:22:52;3.40;;;3.10;;
2338;SDS011;1180;51.438;6.978;2022-12-20T05:25:37;4.97;;;3.67;;
2338;SDS011;1180;51.438;6.978;2022-12-20T05:28:22;2.93;;;2.63;;
2338;SDS011;1180;51.438;6.978;2022-12-20T05:30:47;3.27;;;2.50;;
2338;SDS011;1180;51.438;6.978;2022-12-20T05:33:13;3.50;;;2.60;;
2338;SDS011;1180;51.438;6.978;2022-12-20T05:35:38;3.60;;;2.83;;
2338;SDS011;1180;51.438;6.978;2022-12-20T05:38:03;3.50;;;2.77;;
2338;SDS011;1180;51.438;6.978;2022-12-20T05:40:29;2.90;;;2.43;;
2338;SDS011;1180;51.438;6.978;2022-12-20T05:42:54;2.80;;;2.60;;
2338;SDS011;1180;51.438;6.978;2022-12-20T05:45:19;3.63;;;2.27;;
2338;SDS011;1180;51.438;6.978;2022-12-20T05:47:45;5.83;;;3.30;;
2338;SDS011;1180;51.438;6.978;2022-12-20T05:50:11;3.90;;;3.37;;
2338;SDS011;1180;51.438;6.978;2022-12-20T05:52:36;6.53;;;2.83;;
2338;SDS011;1180;51.438;6.978;2022-12-20T05:55:01;3.63;;;2.60;;
2338;SDS011;1180;51.438;6.978;2022-12-20T05:57:27;4.03;;;2.63;;
2338;SDS011;1180;51.438;6.978;2022-12-20T05:59:52;4.17;;;3.30;;
2338;SDS011;1180;51.438;6.978;2022-12-20T06:02:18;3.60;;;2.77;;
2338;SDS011;1180;51.438;6.978;2022-12-20T06:04:44;4.00;;;3.57;;
2338;SDS011;1180;51.438;6.978;2022-12-20T06:07:09;4.50;;;2.40;;
2338;SDS011;1180;51.438;6.978;2022-12-20T06:09:35;3.00;;;2.77;;
2338;SDS011;1180;51.438;6.978;2022-12-20T06:12:00;3.00;;;2.70;;
2338;SDS011;1180;51.438;6.978;2022-12-20T06:14:25;3.47;;;3.03;;
2338;SDS011;1180;51.438;6.978;2022-12-20T06:16:51;5.10;;;2.70;;
2338;SDS011;1180;51.438;6.978;2022-12-20T06:19:17;4.70;;;3.07;;
2338;SDS011;1180;51.438;6.978;2022-12-20T06:21:43;3.93;;;2.77;;
2338;SDS011;1180;51.438;6.978;2022-12-20T06:24:08;3.60;;;2.70;;
2338;SDS011;1180;51.438;6.978;2022-12-20T06:26:33;2.90;;;2.47;;
2338;SDS011;1180;51.438;6.978;2022-12-20T06:29:02;2.60;;;2.40;;
2338;SDS011;1180;51.438;6.978;2022-12-20T06:31:31;4.93;;;2.47;;
2338;SDS011;1180;51.438;6.978;2022-12-20T06:33:56;4.07;;;2.87;;
2338;SDS011;1180;51.438;6.978;2022-12-20T06:36:22;3.13;;;2.80;;
2338;SDS011;1180;51.438;6.978;2022-12-20T06:38:47;2.80;;;2.60;;
2338;SDS011;1180;51.438;6.978;2022-12-20T06:41:12;3.60;;;2.40;;
2338;SDS011;1180;51.438;6.978;2022-12-20T06:43:38;2.57;;;2.37;;
2338;SDS011;1180;51.438;6.978;2022-12-20T06:46:03;3.10;;;2.50;;
2338;SDS011;1180;51.438;6.978;2022-12-20T06:48:28;4.00;;;3.00;;
2338;SDS011;1180;51.438;6.978;2022-12-20T06:50:54;3.50;;;2.87;;
2338;SDS011;1180;51.438;6.978;2022-12-20T06:53:19;3.20;;;2.60;;
2338;SDS011;1180;51.438;6.978;2022-12-20T06:55:46;3.70;;;2.30;;
2338;SDS011;1180;51.438;6.978;2022-12-20T06:58:14;3.60;;;2.63;;
2338;SDS011;1180;51.438;6.978;2022-12-20T07:00:39;4.43;;;2.20;;
2338;SDS011;1180;51.438;6.978;2022-12-20T07:03:05;3.00;;;2.70;;
2338;SDS011;1180;51.438;6.978;2022-12-20T07:05:31;2.90;;;2.70;;
2338;SDS011;1180;51.438;6.978;2022-12-20T07:07:56;2.43;;;2.33;;
2338;SDS011;1180;51.438;6.978;2022-12-20T07:10:22;2.57;;;2.27;;
2338;SDS011;1180;51.438;6.978;2022-12-20T07:12:47;4.60;;;2.87;;
2338;SDS011;1180;51.438;6.978;2022-12-20T07:15:12;3.60;;;2.03;;
2338;SDS011;1180;51.438;6.978;2022-12-20T07:17:38;3.20;;;2.70;;
2338;SDS011;1180;51.438;6.978;2022-12-20T07:20:03;3.80;;;2.60;;
2338;SDS011;1180;51.438;6.978;2022-12-20T07:22:29;4.07;;;2.30;;
2338;SDS011;1180;51.438;6.978;2022-12-20T07:24:54;6.03;;;2.67;;
2338;SDS011;1180;51.438;6.978;2022-12-20T07:27:20;3.60;;;2.27;;
2338;SDS011;1180;51.438;6.978;2022-12-20T07:29:45;3.73;;;2.63;;
2338;SDS011;1180;51.438;6.978;2022-12-20T07:32:11;3.47;;;2.93;;
2338;SDS011;1180;51.438;6.978;2022-12-20T07:34:37;2.80;;;2.30;;
2338;SDS011;1180;51.438;6.978;2022-12-20T07:37:02;3.57;;;2.40;;
2338;SDS011;1180;51.438;6.978;2022-12-20T07:39:28;3.13;;;2.60;;
2338;SDS011;1180;51.438;6.978;2022-12-20T07:41:54;2.40;;;2.17;;
2338;SDS011;1180;51.438;6.978;2022-12-20T07:44:20;3.40;;;2.43;;
2338;SDS011;1180;51.438;6.978;2022-12-20T07:46:46;2.63;;;2.43;;
2338;SDS011;1180;51.438;6.978;2022-12-20T07:49:11;2.60;;;2.10;;
2338;SDS011;1180;51.438;6.978;2022-12-20T07:51:38;7.47;;;2.70;;
2338;SDS011;1180;51.438;6.978;2022-12-20T07:54:10;4.00;;;3.10;;
2338;SDS011;1180;51.438;6.978;2022-12-20T07:56:41;2.87;;;2.57;;
2338;SDS011;1180;51.438;6.978;2022-12-20T07:59:10;3.20;;;2.90;;
2338;SDS011;1180;51.438;6.978;2022-12-20T08:01:44;6.20;;;2.20;;
2338;SDS011;1180;51.438;6.978;2022-12-20T08:04:12;2.53;;;2.33;;
2338;SDS011;1180;51.438;6.978;2022-12-20T08:06:40;2.90;;;2.10;;
2338;SDS011;1180;51.438;6.978;2022-12-20T08:09:06;3.67;;;2.00;;
2338;SDS011;1180;51.438;6.978;2022-12-20T08:11:36;3.03;;;2.60;;
2338;SDS011;1180;51.438;6.978;2022-12-20T08:14:04;2.33;;;2.00;;
2338;SDS011;1180;51.438;6.978;2022-12-20T08:16:30;1.93;;;1.83;;
2338;SDS011;1180;51.438;6.978;2022-12-20T08:18:56;3.70;;;2.83;;
2338;SDS011;1180;51.438;6.978;2022-12-20T08:21:21;3.57;;;2.27;;
2338;SDS011;1180;51.438;6.978;2022-12-20T08:23:46;2.80;;;2.37;;
2338;SDS011;1180;51.438;6.978;2022-12-20T08:26:12;3.13;;;2.33;;
2338;SDS011;1180;51.438;6.978;2022-12-20T08:28:37;2.60;;;2.33;;
2338;SDS011;1180;51.438;6.978;2022-12-20T08:31:03;2.93;;;2.50;;
2338;SDS011;1180;51.438;6.978;2022-12-20T08:33:30;2.60;;;1.93;;
2338;SDS011;1180;51.438;6.978;2022-12-20T08:35:57;2.77;;;2.43;;
2338;SDS011;1180;51.438;6.978;2022-12-20T08:38:29;2.63;;;2.40;;
2338;SDS011;1180;51.438;6.978;2022-12-20T08:41:02;3.17;;;2.20;;
2338;SDS011;1180;51.438;6.978;2022-12-20T08:43:29;2.07;;;1.90;;
2338;SDS011;1180;51.438;6.978;2022-12-20T08:45:55;3.63;;;2.00;;
2338;SDS011;1180;51.438;6.978;2022-12-20T08:48:21;2.57;;;2.37;;
2338;SDS011;1180;51.438;6.978;2022-12-20T08:50:47;2.60;;;2.00;;
2338;SDS011;1180;51.438;6.978;2022-12-20T08:53:18;4.30;;;2.33;;
2338;SDS011;1180;51.438;6.978;2022-12-20T08:55:44;2.57;;;2.00;;
2338;SDS011;1180;51.438;6.978;2022-12-20T08:58:09;2.43;;;2.23;;
2338;SDS011;1180;51.438;6.978;2022-12-20T09:00:35;4.20;;;2.13;;
2338;SDS011;1180;51.438;6.978;2022-12-20T09:03:00;1.80;;;1.70;;
2338;SDS011;1180;51.438;6.978;2022-12-20T09:05:25;2.30;;;1.90;;
2338;SDS011;1180;51.438;6.978;2022-12-20T09:07:51;3.10;;;2.03;;
2338;SDS011;1180;51.438;6.978;2022-12-20T09:10:16;2.03;;;1.83;;
2338;SDS011;1180;51.438;6.978;2022-12-20T09:12:41;2.50;;;1.80;;
2338;SDS011;1180;51.438;6.978;2022-12-20T09:15:07;3.63;;;2.00;;
2338;SDS011;1180;51.438;6.978;2022-12-20T09:17:33;3.80;;;2.27;;
2338;SDS011;1180;51.438;6.978;2022-12-20T09:19:58;4.33;;;2.00;;
2338;SDS011;1180;51.438;6.978;2022-12-20T09:22:23;3.63;;;2.37;;
2338;SDS011;1180;51.438;6.978;2022-12-20T09:24:49;4.43;;;2.10;;
2338;SDS011;1180;51.438;6.978;2022-12-20T09:27:14;3.87;;;2.43;;
2338;SDS011;1180;51.438;6.978;2022-12-20T09:29:39;2.37;;;2.17;;
2338;SDS011;1180;51.438;6.978;2022-12-20T09:32:05;2.73;;;2.30;;
2338;SDS011;1180;51.438;6.978;2022-12-20T09:34:30;2.60;;;2.03;;
2338;SDS011;1180;51.438;6.978;2022-12-20T09:36:55;3.03;;;2.30;;
2338;SDS011;1180;51.438;6.978;2022-12-20T09:39:21;4.50;;;1.97;;
2338;SDS011;1180;51.438;6.978;2022-12-20T09:41:46;7.27;;;2.20;;
2338;SDS011;1180;51.438;6.978;2022-12-20T09:46:44;5.80;;;2.67;;
2338;SDS011;1180;51.438;6.978;2022-12-20T09:49:16;2.57;;;2.10;;
2338;SDS011;1180;51.438;6.978;2022-12-20T09:57:17;3.83;;;2.47;;
2338;SDS011;1180;51.438;6.978;2022-12-20T09:59:56;2.30;;;2.00;;
2338;SDS011;1180;51.438;6.978;2022-12-20T10:02:22;1.93;;;1.73;;
2338;SDS011;1180;51.438;6.978;2022-12-20T10:04:50;2.90;;;2.00;;
2338;SDS011;1180;51.438;6.978;2022-12-20T10:15:32;2.67;;;2.47;;
2338;SDS011;1180;51.438;6.978;2022-12-20T10:18:13;2.40;;;2.20;;
2338;SDS011;1180;51.438;6.978;2022-12-20T10:20:50;4.00;;;2.50;;
2338;SDS011;1180;51.438;6.978;2022-12-20T10:26:25;3.77;;;1.97;;
2338;SDS011;1180;51.438;6.978;2022-12-20T10:28:51;2.70;;;2.30;;
2338;SDS011;1180;51.438;6.978;2022-12-20T10:31:17;3.00;;;1.93;;
2338;SDS011;1180;51.438;6.978;2022-12-20T10:33:43;7.10;;;2.37;;
2338;SDS011;1180;51.438;6.978;2022-12-20T10:36:16;2.43;;;2.23;;
2338;SDS011;1180;51.438;6.978;2022-12-20T10:38:51;3.50;;;1.80;;
2338;SDS011;1180;51.438;6.978;2022-12-20T10:41:24;3.93;;;2.50;;
2338;SDS011;1180;51.438;6.978;2022-12-20T10:46:35;4.83;;;2.23;;
2338;SDS011;1180;51.438;6.978;2022-12-20T10:51:53;2.53;;;2.10;;
2338;SDS011;1180;51.438;6.978;2022-12-20T10:54:31;3.33;;;2.17;;
2338;SDS011;1180;51.438;6.978;2022-12-20T10:56:59;2.67;;;2.47;;
2338;SDS011;1180;51.438;6.978;2022-12-20T10:59:36;2.83;;;2.47;;
2338;SDS011;1180;51.438;6.978;2022-12-20T11:05:23;3.57;;;3.00;;
2338;SDS011;1180;51.438;6.978;2022-12-20T11:10:22;3.23;;;2.13;;
2338;SDS011;1180;51.438;6.978;2022-12-20T11:12:55;3.00;;;2.70;;
2338;SDS011;1180;51.438;6.978;2022-12-20T11:15:26;2.97;;;2.40;;
2338;SDS011;1180;51.438;6.978;2022-12-20T11:17:58;3.00;;;2.13;;
2338;SDS011;1180;51.438;6.978;2022-12-20T11:20:42;3.73;;;2.23;;
2338;SDS011;1180;51.438;6.978;2022-12-20T11:23:32;5.37;;;2.20;;
2338;SDS011;1180;51.438;6.978;2022-12-20T11:26:09;2.80;;;2.27;;
2338;SDS011;1180;51.438;6.978;2022-12-20T11:48:05;4.53;;;2.13;;
2338;SDS011;1180;51.438;6.978;2022-12-20T11:55:52;2.77;;;1.37;;
2338;SDS011;1180;51.438;6.978;2022-12-20T11:58:25;2.50;;;2.20;;
2338;SDS011;1180;51.438;6.978;2022-12-20T12:01:03;2.50;;;1.70;;
2338;SDS011;1180;51.438;6.978;2022-12-20T12:03:38;2.73;;;1.70;;
2338;SDS011;1180;51.438;6.978;2022-12-20T12:11:36;2.93;;;1.93;;
2338;SDS011;1180;51.438;6.978;2022-12-20T12:14:05;2.43;;;1.80;;
2338;SDS011;1180;51.438;6.978;2022-12-20T12:16:40;2.03;;;1.80;;
2338;SDS011;1180;51.438;6.978;2022-12-20T12:19:10;2.67;;;1.97;;
2338;SDS011;1180;51.438;6.978;2022-12-20T12:24:21;3.37;;;1.77;;
2338;SDS011;1180;51.438;6.978;2022-12-20T12:26:52;2.47;;;1.60;;
2338;SDS011;1180;51.438;6.978;2022-12-20T12:29:18;2.47;;;1.80;;
2338;SDS011;1180;51.438;6.978;2022-12-20T12:31:49;6.97;;;1.90;;
2338;SDS011;1180;51.438;6.978;2022-12-20T12:45:51;2.50;;;1.93;;
2338;SDS011;1180;51.438;6.978;2022-12-20T12:50:56;3.67;;;2.17;;
2338;SDS011;1180;51.438;6.978;2022-12-20T12:53:25;1.60;;;1.40;;
2338;SDS011;1180;51.438;6.978;2022-12-20T12:55:53;4.07;;;2.70;;
2338;SDS011;1180;51.438;6.978;2022-12-20T13:09:08;1.80;;;1.53;;
2338;SDS011;1180;51.438;6.978;2022-12-20T13:12:45;4.37;;;2.40;;
2338;SDS011;1180;51.438;6.978;2022-12-20T13:20:33;3.27;;;2.97;;
2338;SDS011;1180;51.438;6.978;2022-12-20T13:25:32;4.50;;;3.40;;
2338;SDS011;1180;51.438;6.978;2022-12-20T13:30:40;3.83;;;2.80;;
2338;SDS011;1180;51.438;6.978;2022-12-20T13:33:17;3.27;;;2.97;;
2338;SDS011;1180;51.438;6.978;2022-12-20T13:35:55;3.70;;;2.80;;
2338;SDS011;1180;51.438;6.978;2022-12-20T13:40:57;4.63;;;3.87;;
2338;SDS011;1180;51.438;6.978;2022-12-20T13:43:26;3.90;;;3.50;;
2338;SDS011;1180;51.438;6.978;2022-12-20T13:48:41;3.30;;;2.60;;
2338;SDS011;1180;51.438;6.978;2022-12-20T13:51:15;7.10;;;2.73;;
2338;SDS011;1180;51.438;6.978;2022-12-20T13:53:50;4.93;;;3.10;;
2338;SDS011;1180;51.438;6.978;2022-12-20T13:56:43;4.37;;;3.43;;
2338;SDS011;1180;51.438;6.978;2022-12-20T13:59:21;12.50;;;2.63;;
2338;SDS011;1180;51.438;6.978;2022-12-20T14:01:55;6.63;;;3.43;;
2338;SDS011;1180;51.438;6.978;2022-12-20T14:04:27;5.07;;;3.50;;
2338;SDS011;1180;51.438;6.978;2022-12-20T14:07:04;4.10;;;3.10;;
2338;SDS011;1180;51.438;6.978;2022-12-20T14:09:31;3.20;;;2.70;;
2338;SDS011;1180;51.438;6.978;2022-12-20T14:12:05;3.10;;;2.80;;
2338;SDS011;1180;51.438;6.978;2022-12-20T14:14:36;3.47;;;3.17;;
2338;SDS011;1180;51.438;6.978;2022-12-20T14:17:15;3.83;;;3.40;;
2338;SDS011;1180;51.438;6.978;2022-12-20T14:20:05;3.60;;;3.27;;
2338;SDS011;1180;51.438;6.978;2022-12-20T14:22:31;5.63;;;3.60;;
2338;SDS011;1180;51.438;6.978;2022-12-20T14:24:58;6.87;;;2.90;;
2338;SDS011;1180;51.438;6.978;2022-12-20T14:27:24;4.80;;;2.90;;
2338;SDS011;1180;51.438;6.978;2022-12-20T14:29:57;3.07;;;2.37;;
2338;SDS011;1180;51.438;6.978;2022-12-20T14:32:22;3.23;;;2.70;;
2338;SDS011;1180;51.438;6.978;2022-12-20T14:34:48;4.50;;;2.57;;
2338;SDS011;1180;51.438;6.978;2022-12-20T14:37:32;2.90;;;2.50;;
2338;SDS011;1180;51.438;6.978;2022-12-20T14:42:35;4.40;;;2.83;;
2338;SDS011;1180;51.438;6.978;2022-12-20T14:45:22;6.67;;;2.70;;
2338;SDS011;1180;51.438;6.978;2022-12-20T14:47:53;4.57;;;2.60;;
2338;SDS011;1180;51.438;6.978;2022-12-20T14:50:28;4.60;;;3.07;;
2338;SDS011;1180;51.438;6.978;2022-12-20T14:52:56;7.70;;;3.47;;
2338;SDS011;1180;51.438;6.978;2022-12-20T14:55:38;3.10;;;2.80;;
2338;SDS011;1180;51.438;6.978;2022-12-20T14:58:28;5.73;;;3.20;;
2338;SDS011;1180;51.438;6.978;2022-12-20T15:03:51;2.47;;;2.27;;
2338;SDS011;1180;51.438;6.978;2022-12-20T15:06:52;4.87;;;3.30;;
2338;SDS011;1180;51.438;6.978;2022-12-20T15:09:12;4.43;;;2.60;;
2338;SDS011;1180;51.438;6.978;2022-12-20T15:11:38;5.90;;;2.80;;
2338;SDS011;1180;51.438;6.978;2022-12-20T15:14:28;3.60;;;2.50;;
2338;SDS011;1180;51.438;6.978;2022-12-20T15:17:10;3.67;;;2.87;;
2338;SDS011;1180;51.438;6.978;2022-12-20T15:19:38;3.93;;;2.40;;
2338;SDS011;1180;51.438;6.978;2022-12-20T15:22:04;3.10;;;2.67;;
2338;SDS011;1180;51.438;6.978;2022-12-20T15:24:30;6.53;;;3.03;;
2338;SDS011;1180;51.438;6.978;2022-12-20T15:26:56;2.63;;;2.43;;
2338;SDS011;1180;51.438;6.978;2022-12-20T15:29:25;3.33;;;2.30;;
2338;SDS011;1180;51.438;6.978;2022-12-20T15:31:52;3.10;;;2.80;;
2338;SDS011;1180;51.438;6.978;2022-12-20T15:34:34;3.07;;;2.53;;
2338;SDS011;1180;51.438;6.978;2022-12-20T15:37:01;3.00;;;2.70;;
2338;SDS011;1180;51.438;6.978;2022-12-20T15:39:29;3.47;;;2.50;;
2338;SDS011;1180;51.438;6.978;2022-12-20T15:41:55;6.53;;;3.10;;
2338;SDS011;1180;51.438;6.978;2022-12-20T15:44:24;5.10;;;3.03;;
2338;SDS011;1180;51.438;6.978;2022-12-20T15:46:51;3.20;;;2.40;;
2338;SDS011;1180;51.438;6.978;2022-12-20T15:49:21;4.83;;;4.27;;
2338;SDS011;1180;51.438;6.978;2022-12-20T15:51:52;5.57;;;3.30;;
2338;SDS011;1180;51.438;6.978;2022-12-20T15:54:23;4.90;;;2.90;;
2338;SDS011;1180;51.438;6.978;2022-12-20T15:56:53;3.53;;;3.23;;
2338;SDS011;1180;51.438;6.978;2022-12-20T15:59:22;3.57;;;3.27;;
2338;SDS011;1180;51.438;6.978;2022-12-20T16:01:48;4.93;;;3.37;;
2338;SDS011;1180;51.438;6.978;2022-12-20T16:04:14;4.30;;;3.90;;
2338;SDS011;1180;51.438;6.978;2022-12-20T16:06:42;4.93;;;3.43;;
2338;SDS011;1180;51.438;6.978;2022-12-20T16:09:09;6.33;;;3.70;;
2338;SDS011;1180;51.438;6.978;2022-12-20T16:11:34;3.67;;;3.37;;
2338;SDS011;1180;51.438;6.978;2022-12-20T16:14:00;5.00;;;4.37;;
2338;SDS011;1180;51.438;6.978;2022-12-20T16:16:27;4.03;;;3.63;;
2338;SDS011;1180;51.438;6.978;2022-12-20T16:18:54;4.87;;;3.80;;
2338;SDS011;1180;51.438;6.978;2022-12-20T16:21:23;4.73;;;3.20;;
2338;SDS011;1180;51.438;6.978;2022-12-20T16:23:51;4.30;;;3.60;;
2338;SDS011;1180;51.438;6.978;2022-12-20T16:26:18;3.40;;;3.00;;
2338;SDS011;1180;51.438;6.978;2022-12-20T16:28:46;6.40;;;3.50;;
2338;SDS011;1180;51.438;6.978;2022-12-20T16:34:03;4.90;;;3.20;;
2338;SDS011;1180;51.438;6.978;2022-12-20T16:36:42;3.97;;;3.30;;
2338;SDS011;1180;51.438;6.978;2022-12-20T16:39:07;5.93;;;2.87;;
2338;SDS011;1180;51.438;6.978;2022-12-20T16:41:34;8.07;;;3.43;;
2338;SDS011;1180;51.438;6.978;2022-12-20T16:44:00;5.87;;;3.10;;
2338;SDS011;1180;51.438;6.978;2022-12-20T16:46:28;4.90;;;2.30;;
2338;SDS011;1180;51.438;6.978;2022-12-20T16:48:55;3.90;;;2.83;;
2338;SDS011;1180;51.438;6.978;2022-12-20T16:51:25;2.70;;;2.50;;
2338;SDS011;1180;51.438;6.978;2022-12-20T16:53:54;3.33;;;2.70;;
2338;SDS011;1180;51.438;6.978;2022-12-20T16:56:21;4.70;;;3.30;;
2338;SDS011;1180;51.438;6.978;2022-12-20T16:58:47;6.00;;;3.07;;
2338;SDS011;1180;51.438;6.978;2022-12-20T17:01:15;5.57;;;2.80;;
2338;SDS011;1180;51.438;6.978;2022-12-20T17:03:45;3.17;;;2.60;;
2338;SDS011;1180;51.438;6.978;2022-12-20T17:06:11;3.57;;;2.47;;
2338;SDS011;1180;51.438;6.978;2022-12-20T17:08:38;3.87;;;3.47;;
2338;SDS011;1180;51.438;6.978;2022-12-20T17:11:20;6.50;;;2.70;;
2338;SDS011;1180;51.438;6.978;2022-12-20T17:13:48;4.63;;;2.27;;
2338;SDS011;1180;51.438;6.978;2022-12-20T17:16:16;4.60;;;2.70;;
2338;SDS011;1180;51.438;6.978;2022-12-20T17:18:42;3.80;;;3.40;;
2338;SDS011;1180;51.438;6.978;2022-12-20T17:21:51;4.07;;;2.83;;
2338;SDS011;1180;51.438;6.978;2022-12-20T17:24:02;4.93;;;3.00;;
2338;SDS011;1180;51.438;6.978;2022-12-20T17:26:30;4.70;;;3.80;;
2338;SDS011;1180;51.438;6.978;2022-12-20T17:28:57;7.10;;;3.67;;